createdAt,value
2018-12-30T00:00:46.126Z,8.70
2018-12-30T00:03:13.584Z,8.77
2018-12-30T00:05:41.212Z,7.13
2018-12-30T00:08:08.628Z,6.33
2018-12-30T00:10:36.013Z,9.00
2018-12-30T00:13:03.451Z,7.07
2018-12-30T00:15:31.217Z,8.83
2018-12-30T00:17:58.649Z,7.13
2018-12-30T00:20:26.023Z,10.80
2018-12-30T00:22:53.441Z,11.30
2018-12-30T00:25:20.817Z,6.83
2018-12-30T00:27:48.618Z,10.63
2018-12-30T00:30:16.005Z,9.23
2018-12-30T00:32:43.422Z,10.63
2018-12-30T00:35:10.854Z,14.13
2018-12-30T00:37:38.269Z,8.93
2018-12-30T00:40:05.722Z,6.00
2018-12-30T00:42:33.125Z,5.27
2018-12-30T00:45:00.534Z,7.13
2018-12-30T00:47:27.926Z,8.40
2018-12-30T00:49:55.349Z,33.33
2018-12-30T00:52:22.748Z,6.30
2018-12-30T00:54:50.164Z,13.15
2018-12-30T00:57:17.551Z,5.63
2018-12-30T00:59:44.968Z,6.20
2018-12-30T01:02:12.354Z,9.00
2018-12-30T01:04:39.771Z,6.73
2018-12-30T01:07:07.492Z,9.63
2018-12-30T01:09:34.906Z,11.20
2018-12-30T01:12:02.296Z,7.13
2018-12-30T01:14:30.014Z,15.10
2018-12-30T01:16:57.421Z,18.63
2018-12-30T01:19:24.910Z,10.83
2018-12-30T01:21:52.695Z,9.57
2018-12-30T01:24:20.112Z,10.73
2018-12-30T01:26:47.498Z,6.47
2018-12-30T01:29:15.310Z,9.53
2018-12-30T01:31:42.696Z,11.57
2018-12-30T01:34:10.169Z,8.43
2018-12-30T01:36:37.556Z,14.57
2018-12-30T01:39:05.903Z,9.23
2018-12-30T01:41:33.330Z,7.23
2018-12-30T01:44:00.943Z,6.43
2018-12-30T01:46:28.330Z,8.50
2018-12-30T01:48:55.836Z,7.47
2018-12-30T01:51:23.260Z,8.43
2018-12-30T01:53:50.716Z,8.30
2018-12-30T01:56:18.211Z,9.50
2018-12-30T01:58:47.056Z,8.93
2018-12-30T02:01:14.509Z,9.07
2018-12-30T02:03:41.905Z,17.73
2018-12-30T02:06:09.373Z,8.50
2018-12-30T02:08:36.762Z,6.30
2018-12-30T02:11:04.174Z,6.80
2018-12-30T02:13:31.566Z,11.53
2018-12-30T02:15:58.983Z,8.83
2018-12-30T02:18:26.422Z,13.37
2018-12-30T02:20:54.344Z,9.37
2018-12-30T02:23:21.726Z,7.87
2018-12-30T02:25:49.139Z,6.73
2018-12-30T02:28:16.518Z,6.47
2018-12-30T02:30:43.946Z,5.30
2018-12-30T02:33:11.335Z,6.63
2018-12-30T02:35:38.819Z,10.23
2018-12-30T02:38:06.211Z,8.63
2018-12-30T02:40:33.937Z,7.23
2018-12-30T02:43:01.419Z,10.50
2018-12-30T02:45:28.831Z,7.90
2018-12-30T02:47:56.213Z,7.57
2018-12-30T02:50:23.698Z,6.83
2018-12-30T02:52:51.082Z,7.73
2018-12-30T02:55:18.496Z,6.93
2018-12-30T02:57:45.878Z,9.60
2018-12-30T03:00:13.345Z,9.47
2018-12-30T03:02:40.758Z,7.67
2018-12-30T03:05:08.817Z,9.27
2018-12-30T03:07:36.325Z,8.17
2018-12-30T03:10:04.354Z,11.38
2018-12-30T03:12:31.758Z,6.20
2018-12-30T03:14:59.150Z,5.03
2018-12-30T03:17:26.665Z,15.40
2018-12-30T03:19:54.338Z,5.97
2018-12-30T03:22:23.153Z,10.00
2018-12-30T03:24:50.517Z,8.07
2018-12-30T03:27:17.933Z,6.57
2018-12-30T03:29:45.313Z,9.77
2018-12-30T03:32:12.836Z,5.50
2018-12-30T03:34:40.260Z,5.47
2018-12-30T03:37:07.670Z,8.07
2018-12-30T03:39:35.065Z,8.47
2018-12-30T03:42:02.670Z,7.40
2018-12-30T03:44:30.089Z,10.20
2018-12-30T03:46:57.581Z,10.77
2018-12-30T03:49:24.968Z,6.93
2018-12-30T03:51:52.458Z,8.50
2018-12-30T03:54:19.923Z,4.50
2018-12-30T03:56:47.342Z,5.10
2018-12-30T03:59:14.733Z,8.17
2018-12-30T04:01:42.150Z,9.40
2018-12-30T04:04:09.534Z,8.17
2018-12-30T04:06:37.036Z,6.40
2018-12-30T04:09:05.687Z,7.73
2018-12-30T04:11:33.177Z,6.57
2018-12-30T04:14:00.570Z,6.17
2018-12-30T04:16:27.999Z,10.20
2018-12-30T04:18:55.381Z,8.53
2018-12-30T04:21:22.901Z,8.03
2018-12-30T04:23:50.281Z,8.37
2018-12-30T04:26:17.669Z,9.20
2018-12-30T04:28:45.122Z,8.83
2018-12-30T04:31:12.611Z,6.33
2018-12-30T04:33:40.018Z,6.50
2018-12-30T04:36:07.405Z,6.00
2018-12-30T04:38:34.825Z,7.30
2018-12-30T04:41:02.210Z,9.90
2018-12-30T04:43:29.627Z,5.57
2018-12-30T04:45:57.003Z,5.97
2018-12-30T04:48:24.423Z,7.20
2018-12-30T04:50:51.816Z,8.07
2018-12-30T04:53:19.237Z,6.55
2018-12-30T04:55:46.625Z,7.77
2018-12-30T04:58:14.048Z,7.07
2018-12-30T05:00:41.434Z,8.43
2018-12-30T05:03:08.851Z,12.93
2018-12-30T05:05:36.237Z,8.87
2018-12-30T05:08:03.654Z,7.50
2018-12-30T05:10:31.038Z,4.90
2018-12-30T05:12:58.527Z,7.50
2018-12-30T05:15:25.947Z,11.27
2018-12-30T05:17:53.350Z,9.90
2018-12-30T05:20:20.823Z,5.43
2018-12-30T05:22:48.233Z,6.07
2018-12-30T05:25:15.623Z,7.37
2018-12-30T05:27:43.038Z,10.27
2018-12-30T05:30:10.426Z,5.80
2018-12-30T05:32:37.833Z,9.00
2018-12-30T05:35:05.288Z,4.20
2018-12-30T05:37:32.694Z,5.80
2018-12-30T05:40:00.272Z,6.10
2018-12-30T05:42:27.697Z,4.80
2018-12-30T05:44:55.081Z,4.87
2018-12-30T05:47:22.465Z,7.10
2018-12-30T05:49:49.881Z,7.20
2018-12-30T05:52:17.270Z,6.80
2018-12-30T05:54:44.680Z,8.07
2018-12-30T05:57:12.070Z,4.40
2018-12-30T05:59:39.476Z,6.33
2018-12-30T06:02:06.862Z,8.97
2018-12-30T06:04:34.282Z,7.07
2018-12-30T06:07:01.693Z,5.43
2018-12-30T06:09:29.118Z,10.20
2018-12-30T06:11:56.605Z,5.20
2018-12-30T06:14:24.020Z,5.00
2018-12-30T06:16:51.409Z,7.30
2018-12-30T06:19:18.830Z,5.78
2018-12-30T06:21:46.315Z,7.77
2018-12-30T06:24:13.820Z,8.93
2018-12-30T06:26:41.239Z,7.00
2018-12-30T06:29:08.648Z,5.20
2018-12-30T06:31:36.038Z,6.47
2018-12-30T06:34:03.452Z,7.47
2018-12-30T06:36:30.874Z,5.50
2018-12-30T06:38:58.358Z,13.43
2018-12-30T06:41:25.744Z,9.40
2018-12-30T06:43:53.161Z,6.07
2018-12-30T06:46:20.547Z,4.83
2018-12-30T06:48:47.957Z,5.43
2018-12-30T06:51:15.404Z,5.53
2018-12-30T06:53:42.826Z,6.90
2018-12-30T06:56:10.214Z,6.23
2018-12-30T06:58:37.628Z,6.00
2018-12-30T07:01:05.021Z,5.20
2018-12-30T07:03:32.439Z,12.03
2018-12-30T07:05:59.821Z,6.30
2018-12-30T07:08:27.247Z,7.20
2018-12-30T07:10:54.621Z,6.23
2018-12-30T07:13:22.042Z,4.40
2018-12-30T07:15:49.435Z,5.30
2018-12-30T07:18:16.865Z,11.70
2018-12-30T07:20:44.282Z,5.60
2018-12-30T07:23:11.696Z,7.83
2018-12-30T07:25:39.096Z,5.33
2018-12-30T07:28:06.588Z,6.10
2018-12-30T07:30:34.015Z,8.83
2018-12-30T07:33:01.426Z,5.10
2018-12-30T07:35:28.812Z,9.70
2018-12-30T07:37:56.274Z,5.40
2018-12-30T07:40:23.690Z,5.70
2018-12-30T07:42:51.093Z,9.03
2018-12-30T07:45:18.506Z,4.70
2018-12-30T07:47:45.889Z,5.50
2018-12-30T07:50:13.389Z,5.63
2018-12-30T07:52:40.775Z,5.33
2018-12-30T07:55:08.254Z,5.60
2018-12-30T07:57:35.729Z,6.80
2018-12-30T08:00:03.204Z,5.40
2018-12-30T08:02:30.654Z,6.43
2018-12-30T08:04:58.067Z,7.63
2018-12-30T08:07:25.946Z,5.60
2018-12-30T08:09:53.356Z,5.60
2018-12-30T08:12:20.790Z,6.17
2018-12-30T08:14:48.276Z,6.50
2018-12-30T08:17:15.732Z,7.10
2018-12-30T08:19:44.879Z,5.90
2018-12-30T08:22:12.357Z,9.50
2018-12-30T08:24:39.843Z,6.20
2018-12-30T08:27:07.224Z,5.67
2018-12-30T08:29:34.641Z,5.30
2018-12-30T08:32:02.022Z,5.40
2018-12-30T08:34:29.481Z,5.17
2018-12-30T08:36:56.876Z,10.20
2018-12-30T08:39:24.282Z,5.27
2018-12-30T08:41:51.878Z,5.33
2018-12-30T08:44:19.365Z,7.13
2018-12-30T08:46:46.765Z,4.50
2018-12-30T08:49:14.211Z,5.10
2018-12-30T08:51:41.598Z,4.60
2018-12-30T08:54:09.021Z,6.03
2018-12-30T08:56:36.411Z,6.27
2018-12-30T08:59:03.823Z,6.03
2018-12-30T09:01:31.262Z,9.63
2018-12-30T09:03:58.853Z,5.70
2018-12-30T09:06:26.237Z,9.40
2018-12-30T09:08:53.627Z,12.80
2018-12-30T09:11:21.037Z,13.40
2018-12-30T09:13:48.422Z,9.23
2018-12-30T09:16:15.837Z,10.90
2018-12-30T09:18:43.222Z,11.80
2018-12-30T09:21:10.642Z,6.63
2018-12-30T09:23:38.039Z,13.27
2018-12-30T09:26:05.454Z,6.03
2018-12-30T09:28:32.995Z,8.53
2018-12-30T09:31:00.482Z,6.80
2018-12-30T09:33:27.864Z,6.27
2018-12-30T09:35:55.294Z,11.13
2018-12-30T09:38:22.682Z,7.20
2018-12-30T09:40:50.206Z,14.90
2018-12-30T09:43:17.586Z,7.73
2018-12-30T09:45:45.014Z,8.30
2018-12-30T09:48:12.441Z,12.43
2018-12-30T09:50:39.856Z,6.27
2018-12-30T09:53:07.242Z,9.07
2018-12-30T09:55:34.661Z,9.47
2018-12-30T09:58:02.073Z,19.00
2018-12-30T10:00:29.489Z,12.90
2018-12-30T10:02:56.881Z,13.10
2018-12-30T10:05:24.302Z,17.13
2018-12-30T10:07:51.689Z,10.93
2018-12-30T10:10:19.187Z,12.93
2018-12-30T10:12:46.571Z,15.43
2018-12-30T10:15:14.258Z,10.20
2018-12-30T10:17:41.641Z,11.07
2018-12-30T10:20:09.129Z,8.10
2018-12-30T10:22:36.513Z,14.10
2018-12-30T10:25:04.238Z,15.73
2018-12-30T10:27:31.948Z,12.50
2018-12-30T10:29:59.343Z,14.63
2018-12-30T10:32:26.766Z,10.27
2018-12-30T10:34:54.150Z,10.97
2018-12-30T10:37:21.568Z,9.60
2018-12-30T10:39:48.963Z,11.60
2018-12-30T10:42:16.380Z,12.50
2018-12-30T10:44:43.764Z,9.37
2018-12-30T10:47:11.251Z,15.53
2018-12-30T10:49:38.641Z,9.13
2018-12-30T10:52:06.061Z,10.97
2018-12-30T10:54:33.450Z,12.30
2018-12-30T10:57:00.876Z,11.80
2018-12-30T10:59:28.403Z,11.30
2018-12-30T11:01:55.819Z,12.47
2018-12-30T11:04:23.216Z,11.70
2018-12-30T11:06:50.627Z,9.00
2018-12-30T11:09:18.013Z,9.77
2018-12-30T11:11:45.506Z,15.10
2018-12-30T11:14:12.894Z,11.63
2018-12-30T11:16:40.386Z,15.10
2018-12-30T11:19:07.773Z,14.70
2018-12-30T11:21:35.195Z,12.90
2018-12-30T11:24:08.597Z,7.10
2018-12-30T11:26:31.650Z,8.00
2018-12-30T11:28:59.042Z,11.80
2018-12-30T11:31:26.465Z,11.43
2018-12-30T11:33:53.847Z,8.40
2018-12-30T11:36:21.257Z,8.10
2018-12-30T11:38:48.630Z,7.40
2018-12-30T11:41:16.134Z,11.40
2018-12-30T11:43:43.849Z,9.20
2018-12-30T11:46:11.262Z,8.90
2018-12-30T11:48:38.647Z,8.03
2018-12-30T11:51:06.070Z,9.73
2018-12-30T11:53:33.528Z,8.17
2018-12-30T11:56:00.968Z,6.30
2018-12-30T11:58:28.409Z,12.87
2018-12-30T12:00:55.792Z,6.63
2018-12-30T12:03:23.210Z,11.83
2018-12-30T12:05:50.604Z,6.93
2018-12-30T12:08:18.026Z,15.40
2018-12-30T12:10:45.588Z,8.07
2018-12-30T12:13:14.809Z,5.03
2018-12-30T12:15:42.333Z,11.23
2018-12-30T12:18:09.837Z,7.73
2018-12-30T12:20:38.562Z,6.20
2018-12-30T12:23:06.104Z,6.13
2018-12-30T12:25:33.505Z,6.77
2018-12-30T12:28:00.994Z,12.70
2018-12-30T12:30:28.601Z,11.00
2018-12-30T12:32:56.162Z,11.53
2018-12-30T12:35:23.561Z,11.13
2018-12-30T12:37:50.968Z,12.40
2018-12-30T12:40:18.447Z,8.60
2018-12-30T12:42:45.862Z,7.40
2018-12-30T12:45:13.254Z,7.90
2018-12-30T12:47:40.665Z,12.60
2018-12-30T12:50:08.056Z,22.70
2018-12-30T12:52:35.473Z,11.67
2018-12-30T12:55:02.871Z,14.70
2018-12-30T12:57:30.277Z,15.63
2018-12-30T12:59:57.666Z,18.13
2018-12-30T13:02:25.185Z,17.50
2018-12-30T13:04:52.582Z,12.70
2018-12-30T13:07:20.216Z,23.13
2018-12-30T13:09:47.605Z,36.03
2018-12-30T13:12:15.032Z,19.10
2018-12-30T13:14:42.430Z,31.27
2018-12-30T13:17:09.837Z,18.60
2018-12-30T13:19:40.829Z,21.73
2018-12-30T13:22:08.523Z,9.60
2018-12-30T13:24:39.897Z,12.37
2018-12-30T13:27:05.395Z,15.40
2018-12-30T13:29:33.017Z,17.60
2018-12-30T13:32:00.622Z,20.27
2018-12-30T13:34:28.377Z,8.83
2018-12-30T13:36:55.756Z,10.47
2018-12-30T13:39:23.359Z,14.50
2018-12-30T13:41:50.789Z,13.13
2018-12-30T13:44:18.684Z,19.17
2018-12-30T13:46:47.205Z,12.97
2018-12-30T13:49:14.806Z,15.10
2018-12-30T13:51:42.609Z,9.50
2018-12-30T13:54:12.165Z,12.10
2018-12-30T13:56:39.364Z,20.43
2018-12-30T13:59:06.926Z,18.97
2018-12-30T14:01:34.478Z,12.13
2018-12-30T14:04:01.899Z,14.33
2018-12-30T14:06:29.300Z,16.73
2018-12-30T14:08:56.712Z,13.97
2018-12-30T14:11:24.735Z,11.03
2018-12-30T14:13:52.231Z,7.60
2018-12-30T14:16:19.631Z,6.97
2018-12-30T14:18:47.043Z,7.00
2018-12-30T14:21:14.436Z,13.90
2018-12-30T14:23:41.846Z,12.10
2018-12-30T14:26:09.259Z,14.70
2018-12-30T14:28:36.670Z,9.00
2018-12-30T14:31:04.066Z,9.17
2018-12-30T14:33:32.149Z,7.53
2018-12-30T14:35:59.541Z,11.20
2018-12-30T14:38:26.953Z,20.30
2018-12-30T14:40:54.338Z,9.33
2018-12-30T14:43:21.794Z,8.10
2018-12-30T14:45:49.218Z,7.10
2018-12-30T14:48:16.860Z,10.93
2018-12-30T14:50:44.265Z,4.93
2018-12-30T14:53:19.063Z,7.07
2018-12-30T14:55:40.720Z,6.20
2018-12-30T14:58:08.109Z,5.90
2018-12-30T15:00:35.524Z,5.00
2018-12-30T15:03:02.908Z,6.40
2018-12-30T15:05:30.321Z,9.87
2018-12-30T15:07:57.707Z,9.40
2018-12-30T15:10:25.132Z,10.40
2018-12-30T15:12:52.517Z,13.00
2018-12-30T15:15:19.963Z,12.00
2018-12-30T15:17:47.359Z,8.57
2018-12-30T15:20:14.766Z,6.20
2018-12-30T15:22:42.154Z,12.50
2018-12-30T15:25:11.921Z,13.43
2018-12-30T15:27:38.602Z,9.73
2018-12-30T15:30:07.390Z,8.30
2018-12-30T15:32:34.764Z,10.17
2018-12-30T15:35:02.289Z,4.83
2018-12-30T15:37:29.683Z,10.57
2018-12-30T15:39:57.099Z,7.47
2018-12-30T15:42:24.483Z,6.70
2018-12-30T15:44:52.077Z,11.10
2018-12-30T15:47:19.457Z,7.43
2018-12-30T15:49:46.865Z,9.87
2018-12-30T15:52:14.355Z,4.60
2018-12-30T15:54:41.745Z,15.73
2018-12-30T15:57:09.168Z,13.40
2018-12-30T15:59:36.557Z,7.17
2018-12-30T16:02:04.114Z,6.00
2018-12-30T16:04:31.495Z,9.30
2018-12-30T16:06:59.054Z,10.53
2018-12-30T16:09:27.970Z,11.93
2018-12-30T16:11:55.371Z,7.37
2018-12-30T16:14:22.806Z,4.80
2018-12-30T16:16:51.615Z,6.87
2018-12-30T16:19:19.121Z,6.17
2018-12-30T16:21:46.529Z,4.80
2018-12-30T16:24:13.913Z,5.97
2018-12-30T16:26:41.329Z,7.87
2018-12-30T16:29:08.713Z,11.97
2018-12-30T16:31:36.130Z,6.30
2018-12-30T16:34:03.585Z,6.20
2018-12-30T16:36:30.999Z,9.17
2018-12-30T16:38:58.386Z,12.73
2018-12-30T16:41:25.795Z,8.03
2018-12-30T16:43:53.183Z,6.47
2018-12-30T16:46:20.613Z,10.80
2018-12-30T16:48:47.987Z,8.40
2018-12-30T16:51:15.570Z,10.20
2018-12-30T16:53:42.945Z,8.50
2018-12-30T16:56:10.425Z,12.13
2018-12-30T16:58:37.819Z,9.07
2018-12-30T17:01:05.245Z,12.20
2018-12-30T17:03:32.630Z,9.97
2018-12-30T17:06:00.047Z,10.50
2018-12-30T17:08:27.483Z,11.87
2018-12-30T17:10:54.866Z,8.13
2018-12-30T17:13:22.317Z,10.30
2018-12-30T17:15:49.704Z,16.20
2018-12-30T17:18:17.125Z,11.50
2018-12-30T17:20:44.506Z,19.50
2018-12-30T17:23:11.926Z,28.83
2018-12-30T17:25:43.103Z,13.80
2018-12-30T17:28:08.398Z,23.10
2018-12-30T17:30:35.764Z,15.33
2018-12-30T17:33:03.180Z,20.70
2018-12-30T17:35:30.563Z,14.23
2018-12-30T17:37:57.982Z,24.70
2018-12-30T17:40:25.456Z,18.97
2018-12-30T17:42:52.869Z,19.07
2018-12-30T17:45:20.260Z,22.43
2018-12-30T17:47:47.677Z,13.80
2018-12-30T17:50:15.070Z,16.07
2018-12-30T17:52:42.481Z,25.03
2018-12-30T17:55:09.882Z,16.70
2018-12-30T17:57:37.302Z,19.03
2018-12-30T18:00:05.641Z,10.47
2018-12-30T18:02:33.105Z,16.77
2018-12-30T18:05:00.500Z,24.07
2018-12-30T18:07:27.956Z,19.23
2018-12-30T18:09:55.345Z,15.00
2018-12-30T18:12:22.808Z,24.87
2018-12-30T18:14:51.288Z,21.07
2018-12-30T18:17:18.848Z,13.83
2018-12-30T18:19:46.338Z,18.77
2018-12-30T18:22:13.768Z,14.67
2018-12-30T18:24:41.177Z,28.50
2018-12-30T18:27:08.564Z,12.37
2018-12-30T18:29:36.062Z,12.40
2018-12-30T18:32:03.529Z,12.33
2018-12-30T18:34:30.937Z,14.50
2018-12-30T18:36:58.460Z,15.30
2018-12-30T18:39:25.893Z,16.43
2018-12-30T18:41:53.299Z,15.20
2018-12-30T18:44:20.710Z,17.93
2018-12-30T18:46:48.106Z,13.10
2018-12-30T18:49:15.527Z,13.67
2018-12-30T18:51:42.948Z,14.73
2018-12-30T18:54:10.598Z,13.03
2018-12-30T18:56:39.523Z,10.50
2018-12-30T18:59:06.942Z,11.43
2018-12-30T19:01:34.330Z,9.23
2018-12-30T19:04:01.746Z,10.50
2018-12-30T19:06:29.132Z,11.37
2018-12-30T19:08:56.552Z,12.60
2018-12-30T19:11:23.934Z,11.73
2018-12-30T19:13:51.349Z,13.77
2018-12-30T19:16:18.738Z,13.97
2018-12-30T19:18:46.146Z,9.67
2018-12-30T19:21:13.560Z,16.43
2018-12-30T19:23:40.977Z,12.63
2018-12-30T19:26:14.304Z,12.80
2018-12-30T19:28:37.877Z,11.23
2018-12-30T19:31:05.336Z,9.33
2018-12-30T19:33:32.748Z,10.93
2018-12-30T19:36:00.137Z,10.07
2018-12-30T19:38:27.530Z,8.27
2018-12-30T19:40:54.932Z,9.73
2018-12-30T19:43:22.325Z,10.83
2018-12-30T19:45:49.743Z,12.03
2018-12-30T19:48:17.520Z,11.40
2018-12-30T19:50:44.915Z,9.17
2018-12-30T19:53:12.341Z,11.80
2018-12-30T19:55:39.763Z,12.10
2018-12-30T19:58:07.150Z,14.80
2018-12-30T20:00:34.649Z,9.80
2018-12-30T20:03:02.043Z,15.90
2018-12-30T20:05:29.458Z,14.37
2018-12-30T20:07:56.846Z,12.63
2018-12-30T20:10:24.275Z,11.17
2018-12-30T20:12:51.651Z,21.10
2018-12-30T20:15:19.070Z,35.97
2018-12-30T20:17:46.462Z,38.53
2018-12-30T20:20:13.881Z,22.60
2018-12-30T20:22:43.194Z,17.90
2018-12-30T20:25:10.612Z,19.57
2018-12-30T20:27:38.002Z,21.43
2018-12-30T20:30:06.794Z,17.83
2018-12-30T20:32:34.191Z,21.20
2018-12-30T20:35:01.709Z,20.63
2018-12-30T20:37:29.097Z,14.87
2018-12-30T20:39:56.513Z,23.50
2018-12-30T20:42:23.898Z,38.93
2018-12-30T20:44:51.459Z,37.27
2018-12-30T20:47:19.786Z,18.90
2018-12-30T20:49:47.206Z,21.73
2018-12-30T20:52:14.589Z,23.30
2018-12-30T20:54:42.092Z,19.80
2018-12-30T20:57:09.477Z,29.03
2018-12-30T20:59:36.901Z,16.03
2018-12-30T21:02:04.288Z,20.77
2018-12-30T21:04:31.681Z,19.90
2018-12-30T21:06:59.138Z,26.30
2018-12-30T21:09:26.529Z,32.67
2018-12-30T21:11:53.950Z,18.00
2018-12-30T21:14:21.337Z,23.57
2018-12-30T21:16:48.753Z,17.80
2018-12-30T21:19:16.222Z,21.83
2018-12-30T21:21:43.635Z,24.50
2018-12-30T21:24:11.023Z,17.23
2018-12-30T21:26:45.203Z,19.83
2018-12-30T21:29:07.480Z,32.37
2018-12-30T21:31:34.907Z,31.97
2018-12-30T21:34:02.285Z,26.77
2018-12-30T21:36:29.706Z,49.37
2018-12-30T21:38:57.096Z,39.37
2018-12-30T21:41:24.520Z,24.37
2018-12-30T21:43:51.998Z,30.03
2018-12-30T21:46:19.430Z,20.27
2018-12-30T21:48:46.833Z,22.77
2018-12-30T21:51:14.253Z,28.30
2018-12-30T21:53:41.648Z,32.03
2018-12-30T21:56:09.058Z,18.80
2018-12-30T21:58:36.442Z,29.73
2018-12-30T22:01:03.972Z,18.53
2018-12-30T22:03:31.374Z,25.87
2018-12-30T22:05:58.786Z,27.63
2018-12-30T22:08:26.184Z,21.43
2018-12-30T22:10:53.606Z,21.10
2018-12-30T22:13:20.996Z,25.63
2018-12-30T22:15:48.410Z,25.50
2018-12-30T22:18:15.802Z,17.17
2018-12-30T22:20:43.220Z,27.90
2018-12-30T22:23:10.615Z,19.23
2018-12-30T22:25:38.031Z,17.70
2018-12-30T22:28:05.425Z,27.40
2018-12-30T22:30:32.819Z,22.63
2018-12-30T22:33:00.275Z,15.17
2018-12-30T22:35:27.681Z,15.93
2018-12-30T22:37:55.086Z,17.90
2018-12-30T22:40:22.512Z,18.00
2018-12-30T22:42:49.934Z,18.33
2018-12-30T22:45:17.317Z,19.43
2018-12-30T22:47:44.738Z,17.77
2018-12-30T22:50:12.125Z,23.73
2018-12-30T22:52:39.542Z,20.77
2018-12-30T22:55:06.934Z,15.27
2018-12-30T22:57:34.344Z,15.53
2018-12-30T23:00:01.733Z,19.70
2018-12-30T23:02:29.231Z,12.20
2018-12-30T23:04:56.689Z,22.33
2018-12-30T23:07:24.106Z,17.70
2018-12-30T23:09:51.498Z,11.10
2018-12-30T23:12:18.936Z,16.83
2018-12-30T23:14:46.316Z,15.03
2018-12-30T23:17:13.746Z,20.07
2018-12-30T23:19:42.777Z,12.07
2018-12-30T23:22:10.186Z,13.47
2018-12-30T23:24:37.673Z,13.37
2018-12-30T23:27:05.157Z,12.50
2018-12-30T23:29:32.542Z,18.70
2018-12-30T23:32:00.025Z,13.80
2018-12-30T23:34:27.497Z,9.23
2018-12-30T23:36:54.919Z,11.13
2018-12-30T23:39:22.378Z,16.40
2018-12-30T23:41:49.729Z,12.50
2018-12-30T23:44:17.114Z,14.03
2018-12-30T23:46:44.613Z,11.33
2018-12-30T23:49:11.990Z,18.67
2018-12-30T23:51:39.378Z,11.73
2018-12-30T23:54:06.793Z,12.60
2018-12-30T23:56:34.177Z,15.93
2018-12-30T23:59:01.594Z,16.60
